createdAt,value
2018-09-28T00:05:55.482Z,10.13
2018-09-28T00:26:30.757Z,9.82
2018-09-28T00:47:07.874Z,9.64
2018-09-28T01:07:46.219Z,9.54
2018-09-28T01:28:25.487Z,9.40
2018-09-28T01:49:07.823Z,9.22
2018-09-28T02:09:50.164Z,9.14
2018-09-28T02:30:32.500Z,8.85
2018-09-28T02:51:12.687Z,8.77
2018-09-28T03:11:51.249Z,8.43
2018-09-28T03:32:29.068Z,8.55
2018-09-28T03:53:09.566Z,8.34
2018-09-28T04:13:49.748Z,8.31
2018-09-28T04:34:31.166Z,8.15
2018-09-28T04:55:09.506Z,8.03
2018-09-28T05:15:51.894Z,7.98
2018-09-28T05:36:30.808Z,7.88
2018-09-28T05:57:07.306Z,7.80
2018-09-28T06:17:43.506Z,7.94
2018-09-28T06:38:22.771Z,8.08
2018-09-28T06:59:04.201Z,8.27
2018-09-28T07:19:42.218Z,8.54
2018-09-28T07:40:21.488Z,8.85
2018-09-28T08:01:02.904Z,9.23
2018-09-28T08:21:41.872Z,9.70
2018-09-28T08:42:20.559Z,10.22
2018-09-28T09:03:01.624Z,10.84
2018-09-28T09:23:42.736Z,11.56
2018-09-28T09:44:19.375Z,12.37
2018-09-28T10:05:01.268Z,13.31
2018-09-28T10:25:41.762Z,13.94
2018-09-28T10:46:21.948Z,14.83
2018-09-28T11:07:01.216Z,15.17
2018-09-28T11:27:40.551Z,15.55
2018-09-28T11:48:22.817Z,15.80
2018-09-28T12:09:06.403Z,16.33
2018-09-28T12:29:43.775Z,16.50
2018-09-28T12:50:25.556Z,17.02
2018-09-28T13:11:06.027Z,17.22
2018-09-28T13:31:43.139Z,17.22
2018-09-28T13:52:21.529Z,17.66
2018-09-28T14:13:04.029Z,17.51
2018-09-28T14:33:40.030Z,16.53
2018-09-28T14:54:17.146Z,15.55
2018-09-28T15:14:58.549Z,14.59
2018-09-28T15:35:35.674Z,14.05
2018-09-28T15:56:12.443Z,13.51
2018-09-28T16:16:51.434Z,13.13
2018-09-28T16:37:27.625Z,13.02
2018-09-28T16:58:10.889Z,12.72
2018-09-28T17:18:55.439Z,12.58
2018-09-28T17:39:33.409Z,12.68
2018-09-28T18:00:15.749Z,12.76
2018-09-28T18:20:57.913Z,12.73
2018-09-28T18:41:40.119Z,12.69
2018-09-28T19:02:22.871Z,12.66
2018-09-28T19:23:04.797Z,12.55
2018-09-28T19:43:48.357Z,12.43
2018-09-28T20:04:25.484Z,12.22
2018-09-28T20:25:06.037Z,12.07
2018-09-28T20:45:47.075Z,11.97
2018-09-28T21:06:29.425Z,11.65
2018-09-28T21:27:04.978Z,11.32
2018-09-28T21:47:41.805Z,11.14
2018-09-28T22:08:19.226Z,10.97
2018-09-28T22:28:58.186Z,10.74
2018-09-28T22:49:40.525Z,10.57
2018-09-28T23:10:17.026Z,10.35
2018-09-28T23:30:52.296Z,10.13
2018-09-28T23:51:30.329Z,9.84
